Time;durP1;ratioP1;P1;durP2;ratioP2;P2;SDS_P1;SDS_P2;PMS_P1;PMS_P2;Temp;Humidity;BMP_temperature;BMP_pressure;BME280_temperature;BME280_humidity;BME280_pressure;Samples;Min_cycle;Max_cycle;Signal;HPM_P1;HPM_P2
2021/12/02 00:01:09;;;;;;;3.80;2.00;;;;;;;6.12;83.14;96931.58;104232;1304;24168;-28
2021/12/02 00:03:36;;;;;;;2.20;1.50;;;;;;;6.04;83.47;96933.55;104212;1305;24167;-24
2021/12/02 00:06:03;;;;;;;2.50;1.80;;;;;;;5.90;83.88;96935.16;104182;1304;24168;-28
2021/12/02 00:08:29;;;;;;;3.40;1.20;;;;;;;6.13;82.93;96931.84;104168;1309;24150;-29
2021/12/02 00:10:54;;;;;;;3.00;1.70;;;;;;;6.20;82.80;96939.48;104173;1304;24109;-28
2021/12/02 00:13:24;;;;;;;3.10;1.90;;;;;;;6.12;82.87;96935.98;104116;1304;24177;-28
2021/12/02 00:21:03;;;;;;;1.40;0.90;;;;;;;6.10;83.52;96950.44;104135;1304;24170;-24
2021/12/02 00:23:35;;;;;;;3.10;1.00;;;;;;;6.12;83.17;96942.32;104172;1309;24134;-24
2021/12/02 00:26:03;;;;;;;2.20;1.60;;;;;;;5.90;83.92;96944.35;104182;1304;24400;-24
2021/12/02 00:28:29;;;;;;;1.20;1.10;;;;;;;5.89;84.04;96943.02;104177;1304;24398;-24
2021/12/02 00:30:57;;;;;;;2.60;1.80;;;;;;;5.83;84.10;96941.52;104186;1304;24259;-24
2021/12/02 00:33:25;;;;;;;2.10;1.40;;;;;;;6.01;83.46;96943.42;104224;1303;22479;-28
2021/12/02 00:35:52;;;;;;;2.40;1.00;;;;;;;5.92;83.66;96938.83;104155;1304;24207;-28
2021/12/02 00:38:19;;;;;;;2.70;1.10;;;;;;;5.75;84.21;96935.34;104214;1304;24334;-25
2021/12/02 00:40:45;;;;;;;3.50;1.50;;;;;;;5.81;84.18;96938.64;104201;1304;24430;-29
2021/12/02 00:43:11;;;;;;;3.80;1.40;;;;;;;5.78;84.03;96944.70;104204;1304;24114;-28
2021/12/02 00:45:40;;;;;;;3.10;1.70;;;;;;;5.76;84.25;96946.69;104136;1304;24163;-30
2021/12/02 00:48:07;;;;;;;5.30;1.80;;;;;;;5.64;84.62;96943.29;104185;1304;24140;-28
2021/12/02 00:50:33;;;;;;;1.80;1.20;;;;;;;5.78;84.10;96943.88;104106;1308;24271;-24
2021/12/02 00:52:59;;;;;;;1.90;1.20;;;;;;;5.70;84.34;96949.33;104163;1304;24237;-26
2021/12/02 00:55:24;;;;;;;4.40;1.40;;;;;;;5.66;84.81;96951.51;104146;1304;24153;-24
2021/12/02 00:57:50;;;;;;;3.40;1.50;;;;;;;5.80;84.14;96958.85;104115;1304;24494;-24
2021/12/02 01:00:16;;;;;;;3.50;1.40;;;;;;;5.65;84.44;96966.71;104117;1304;24260;-24
2021/12/02 01:02:42;;;;;;;2.60;1.00;;;;;;;5.75;84.01;96964.58;104145;1304;24177;-24
2021/12/02 01:05:08;;;;;;;2.20;1.40;;;;;;;5.44;85.26;96963.63;104259;1304;24205;-28
2021/12/02 01:07:34;;;;;;;2.20;1.10;;;;;;;5.27;86.05;96966.70;104096;1309;24241;-29
2021/12/02 01:10:00;;;;;;;3.60;1.70;;;;;;;5.27;86.09;96968.73;104211;1304;22444;-25
2021/12/02 01:12:26;;;;;;;3.70;1.60;;;;;;;5.19;86.37;96970.58;104129;1309;24160;-28
2021/12/02 01:14:51;;;;;;;3.40;2.10;;;;;;;5.16;86.66;96968.63;104110;1304;24296;-29
2021/12/02 01:17:17;;;;;;;3.80;1.60;;;;;;;5.25;86.51;96969.37;104180;1309;24279;-24
2021/12/02 01:19:44;;;;;;;2.60;1.60;;;;;;;5.21;86.43;96971.34;104225;1304;24157;-24
2021/12/02 01:22:09;;;;;;;7.40;1.70;;;;;;;5.17;86.68;96974.08;104186;1308;24301;-29
2021/12/02 01:24:35;;;;;;;4.60;1.80;;;;;;;5.36;85.78;96978.41;104168;1304;24167;-29
2021/12/02 01:27:01;;;;;;;6.10;1.60;;;;;;;5.21;86.00;96981.02;104095;1305;24148;-29
2021/12/02 01:29:27;;;;;;;2.50;1.40;;;;;;;5.26;86.21;96981.89;104099;1303;24117;-29
2021/12/02 01:31:58;;;;;;;4.20;1.20;;;;;;;5.36;85.58;96983.20;104132;1304;24153;-26
2021/12/02 01:34:26;;;;;;;3.40;0.60;;;;;;;5.15;86.23;96976.64;104213;1304;25405;-29
2021/12/02 01:36:52;;;;;;;5.50;0.80;;;;;;;5.16;86.29;96972.18;104172;1304;24167;-24
2021/12/02 01:39:19;;;;;;;3.10;1.40;;;;;;;5.13;86.64;96971.27;104255;1304;22871;-29
2021/12/02 01:41:48;;;;;;;2.40;0.70;;;;;;;5.41;85.65;96970.45;104091;1304;24102;-24
2021/12/02 01:44:15;;;;;;;2.50;0.80;;;;;;;5.48;85.04;96974.34;104205;1305;24203;-25
2021/12/02 01:46:42;;;;;;;0.60;0.30;;;;;;;5.73;83.58;96969.27;104171;1304;24414;-31
2021/12/02 01:49:10;;;;;;;2.20;0.90;;;;;;;5.76;83.29;96969.73;104228;1304;24289;-30
2021/12/02 01:51:40;;;;;;;2.40;0.90;;;;;;;5.81;83.04;96969.27;104182;1308;24131;-24
2021/12/02 01:54:09;;;;;;;2.60;0.50;;;;;;;5.85;82.77;96972.39;104169;1305;24258;-31
2021/12/02 01:56:42;;;;;;;2.10;0.90;;;;;;;6.00;82.02;96971.39;104205;1299;22773;-31
2021/12/02 01:59:10;;;;;;;1.20;0.70;;;;;;;5.96;82.18;96978.83;104178;1308;24153;-29
2021/12/02 02:01:36;;;;;;;0.90;0.30;;;;;;;5.81;82.90;96979.05;104207;1304;24153;-27
2021/12/02 02:04:02;;;;;;;0.90;0.50;;;;;;;5.96;82.43;96977.82;104200;1304;24286;-29
2021/12/02 02:06:31;;;;;;;2.10;0.80;;;;;;;6.26;80.54;96987.12;104137;1304;24383;-29
2021/12/02 02:08:57;;;;;;;1.40;0.30;;;;;;;6.67;78.84;96981.46;104252;1308;23825;-24
2021/12/02 02:11:25;;;;;;;0.50;0.30;;;;;;;6.68;78.53;96975.42;104186;1304;24180;-29
2021/12/02 02:13:51;;;;;;;1.10;0.50;;;;;;;6.77;78.08;96976.58;104045;1304;22666;-24
2021/12/02 02:16:17;;;;;;;0.90;0.40;;;;;;;6.44;79.06;96984.23;104200;1304;24153;-29
2021/12/02 02:18:44;;;;;;;0.70;0.30;;;;;;;6.57;78.78;96988.27;104181;1304;24272;-25
2021/12/02 02:21:14;;;;;;;1.20;0.50;;;;;;;6.68;78.14;96985.02;104170;1307;22483;-29
2021/12/02 02:23:45;;;;;;;0.90;0.50;;;;;;;6.54;78.66;96983.13;104145;1304;24146;-29
2021/12/02 02:26:11;;;;;;;1.20;0.60;;;;;;;6.61;78.48;96983.05;104225;1304;24286;-29
2021/12/02 02:28:36;;;;;;;0.60;0.30;;;;;;;6.45;78.70;96985.47;103882;1304;403686;-29
2021/12/02 02:31:03;;;;;;;1.10;0.40;;;;;;;6.37;79.18;96972.56;104067;1303;24237;-25
2021/12/02 02:33:36;;;;;;;1.00;0.30;;;;;;;6.55;78.42;96977.98;104102;1304;24405;-29
2021/12/02 02:36:04;;;;;;;0.80;0.20;;;;;;;6.51;77.83;96985.76;104176;1304;24172;-24
2021/12/02 02:38:30;;;;;;;0.20;0.10;;;;;;;6.66;77.01;96981.86;104148;1309;24239;-25
2021/12/02 02:40:58;;;;;;;0.60;0.20;;;;;;;6.60;76.76;96983.80;104178;1304;24268;-24
2021/12/02 02:43:25;;;;;;;0.90;0.30;;;;;;;6.84;75.71;96973.09;104170;1307;24281;-24
2021/12/02 02:45:51;;;;;;;3.10;1.00;;;;;;;7.11;74.27;96975.84;104270;1306;24147;-28
2021/12/02 02:48:17;;;;;;;3.20;0.20;;;;;;;6.88;75.02;96983.70;104085;1304;24391;-29
2021/12/02 02:50:42;;;;;;;0.00;0.00;;;;;;;6.68;75.58;96991.42;104170;1303;24210;-25
2021/12/02 02:53:13;;;;;;;1.10;0.20;;;;;;;6.62;75.64;96990.34;104176;1304;24112;-29
2021/12/02 02:55:40;;;;;;;0.10;0.00;;;;;;;6.69;75.28;96995.23;104196;1304;23003;-26
2021/12/02 02:58:16;;;;;;;0.90;0.20;;;;;;;6.73;74.98;96997.95;104152;1304;24182;-25
2021/12/02 03:06:01;;;;;;;0.50;0.10;;;;;;;6.75;73.97;97008.91;104166;1304;24242;-25
2021/12/02 03:08:34;;;;;;;0.80;0.30;;;;;;;6.75;73.61;97011.58;104168;1304;24144;-25
2021/12/02 03:11:00;;;;;;;0.30;0.10;;;;;;;6.84;72.59;97019.85;104180;1304;24144;-29
2021/12/02 03:13:37;;;;;;;0.20;0.20;;;;;;;6.69;73.15;97022.92;104149;1305;24289;-25
2021/12/02 03:18:32;;;;;;;0.10;0.00;;;;;;;6.57;73.25;97025.42;104132;1304;22508;-25
2021/12/02 03:20:58;;;;;;;0.40;0.20;;;;;;;6.45;73.44;97031.66;104049;1302;24281;-24
2021/12/02 03:23:24;;;;;;;0.60;0.10;;;;;;;6.48;73.19;97033.81;104161;1304;22441;-25
2021/12/02 03:25:49;;;;;;;0.20;0.10;;;;;;;6.53;73.23;97035.86;104088;1309;24144;-29
2021/12/02 03:28:15;;;;;;;0.80;0.10;;;;;;;6.47;73.45;97038.16;104181;1303;24404;-29
2021/12/02 03:30:41;;;;;;;0.30;0.00;;;;;;;6.54;72.77;97035.88;104216;1305;24271;-25
2021/12/02 03:33:07;;;;;;;0.10;0.10;;;;;;;6.49;72.73;97045.64;104137;1304;24180;-29
2021/12/02 03:35:33;;;;;;;0.10;0.10;;;;;;;6.61;72.30;97048.65;104237;1309;23864;-25
2021/12/02 03:37:59;;;;;;;0.00;0.00;;;;;;;6.70;72.41;97048.23;104167;1304;24293;-29
2021/12/02 03:40:25;;;;;;;0.00;0.00;;;;;;;6.60;72.52;97051.16;104143;1304;24146;-24
2021/12/02 03:42:52;;;;;;;0.20;0.10;;;;;;;6.78;71.42;97052.69;104187;1304;24153;-29
2021/12/02 03:45:18;;;;;;;0.00;0.00;;;;;;;7.05;70.54;97054.06;104211;1304;24265;-24
2021/12/02 03:47:44;;;;;;;0.10;0.10;;;;;;;6.82;71.09;97055.52;104127;1304;22680;-24
2021/12/02 03:50:10;;;;;;;0.10;0.10;;;;;;;6.68;72.04;97062.27;104224;1306;24289;-23
2021/12/02 03:52:36;;;;;;;0.50;0.20;;;;;;;6.54;72.90;97061.26;104190;1305;24204;-30
2021/12/02 03:55:03;;;;;;;1.10;0.10;;;;;;;6.39;73.53;97065.43;104189;1308;24270;-24
2021/12/02 03:57:31;;;;;;;0.10;0.00;;;;;;;6.22;74.36;97069.48;104217;1304;24259;-29
2021/12/02 03:59:59;;;;;;;0.20;0.00;;;;;;;6.21;74.39;97072.73;104206;1301;24176;-24
2021/12/02 04:02:25;;;;;;;0.40;0.30;;;;;;;6.32;74.15;97074.02;104176;1304;24166;-29
2021/12/02 04:04:51;;;;;;;0.20;0.10;;;;;;;6.28;74.06;97077.48;104173;1304;24234;-29
2021/12/02 04:07:18;;;;;;;0.80;0.20;;;;;;;6.29;74.09;97075.91;104176;1304;24280;-29
2021/12/02 04:09:46;;;;;;;0.10;0.10;;;;;;;6.38;73.76;97083.66;104175;1304;24284;-29
2021/12/02 04:14:43;;;;;;;0.00;0.00;;;;;;;6.44;73.65;97084.52;104164;1310;24153;-29
2021/12/02 04:17:10;;;;;;;0.30;0.00;;;;;;;6.51;73.48;97089.30;104147;1304;24151;-29
2021/12/02 04:19:37;;;;;;;0.00;0.00;;;;;;;6.65;72.81;97091.79;103917;1307;22489;-25
2021/12/02 04:22:03;;;;;;;0.80;0.20;;;;;;;6.67;72.60;97102.81;104202;1304;24314;-29
2021/12/02 04:24:29;;;;;;;0.90;0.40;;;;;;;6.52;73.22;97101.19;103926;1304;22508;-29
2021/12/02 04:26:55;;;;;;;0.20;0.10;;;;;;;6.58;73.07;97102.66;104189;1308;24602;-24
2021/12/02 04:29:23;;;;;;;17.40;4.00;;;;;;;6.38;73.93;97108.30;104218;1304;24253;-25
2021/12/02 04:31:49;;;;;;;0.10;0.00;;;;;;;6.15;75.31;97110.28;104229;1304;24254;-25
2021/12/02 04:34:15;;;;;;;0.30;0.20;;;;;;;6.18;75.58;97113.90;104201;1304;24221;-29
2021/12/02 04:36:41;;;;;;;0.10;0.10;;;;;;;6.20;75.61;97106.66;103883;1310;24177;-25
2021/12/02 04:39:07;;;;;;;0.10;0.10;;;;;;;5.94;76.65;97104.17;104159;1304;24167;-29
2021/12/02 04:41:33;;;;;;;0.20;0.10;;;;;;;5.71;78.13;97101.55;104068;1304;24282;-24
2021/12/02 04:43:59;;;;;;;0.30;0.10;;;;;;;5.48;79.61;97101.59;104124;1304;24167;-25
2021/12/02 04:46:25;;;;;;;0.50;0.10;;;;;;;5.33;80.50;97104.52;104160;1305;24156;-29
2021/12/02 04:48:51;;;;;;;1.10;0.20;;;;;;;5.34;80.55;97103.70;104168;1304;24155;-29
2021/12/02 04:51:17;;;;;;;0.10;0.00;;;;;;;5.33;80.74;97106.40;104164;1308;24167;-25
2021/12/02 04:53:43;;;;;;;0.00;0.00;;;;;;;5.33;80.88;97114.71;104103;1304;24202;-24
2021/12/02 04:56:08;;;;;;;0.10;0.10;;;;;;;5.35;81.19;97122.61;104147;1304;24171;-29
2021/12/02 04:58:34;;;;;;;0.10;0.00;;;;;;;5.43;81.25;97124.47;104180;1310;24286;-28
2021/12/02 05:01:00;;;;;;;0.50;0.20;;;;;;;5.52;81.36;97125.39;104185;1304;24167;-24
2021/12/02 05:03:26;;;;;;;0.20;0.20;;;;;;;5.54;81.21;97133.32;104148;1304;24214;-25
2021/12/02 05:05:51;;;;;;;0.10;0.10;;;;;;;5.21;83.03;97143.45;104193;1309;24289;-29
2021/12/02 05:08:17;;;;;;;4.10;2.60;;;;;;;5.23;83.60;97141.60;104115;1304;24380;-29
2021/12/02 05:10:43;;;;;;;34.40;14.10;;;;;;;5.11;84.27;97138.23;104184;1308;24574;-29
2021/12/02 05:13:09;;;;;;;76.70;37.20;;;;;;;5.01;84.92;97136.23;104169;1304;24263;-25
2021/12/02 05:15:34;;;;;;;6.50;3.10;;;;;;;5.29;84.26;97148.79;104227;1304;24227;-25
2021/12/02 05:18:00;;;;;;;0.40;0.20;;;;;;;4.90;86.57;97156.73;104125;1308;24340;-23
2021/12/02 05:20:26;;;;;;;0.30;0.10;;;;;;;4.66;87.86;97151.38;104179;1310;24298;-29
2021/12/02 05:22:52;;;;;;;9.30;5.10;;;;;;;4.83;87.64;97159.80;104215;1308;24244;-28
2021/12/02 05:25:17;;;;;;;0.90;0.50;;;;;;;4.75;87.91;97162.04;104239;1302;24261;-25
2021/12/02 05:27:43;;;;;;;1.80;0.20;;;;;;;4.53;89.52;97165.03;104093;1308;22453;-28
2021/12/02 05:30:09;;;;;;;0.10;0.10;;;;;;;4.53;89.93;97170.07;104201;1310;24177;-31
2021/12/02 05:32:35;;;;;;;1.30;0.30;;;;;;;4.48;90.41;97168.09;104214;1308;22655;-26
2021/12/02 05:35:01;;;;;;;1.90;0.40;;;;;;;4.46;90.32;97165.73;104162;1309;24404;-25
2021/12/02 05:37:27;;;;;;;0.20;0.00;;;;;;;4.54;89.71;97170.11;104239;1304;24273;-27
2021/12/02 05:39:53;;;;;;;6.00;0.20;;;;;;;4.76;88.32;97178.64;104238;1304;24230;-29
2021/12/02 05:42:19;;;;;;;0.60;0.10;;;;;;;4.81;88.08;97176.60;104283;1307;24286;-23
2021/12/02 05:44:45;;;;;;;0.00;0.00;;;;;;;4.62;89.03;97174.34;104252;1309;24279;-30
2021/12/02 05:47:12;;;;;;;0.80;0.30;;;;;;;4.59;89.21;97183.89;104177;1304;24296;-32
2021/12/02 05:49:37;;;;;;;0.30;0.20;;;;;;;4.73;88.61;97186.19;104250;1304;24186;-28
2021/12/02 05:52:03;;;;;;;0.50;0.40;;;;;;;4.63;89.00;97191.31;104172;1304;24267;-27
2021/12/02 05:54:29;;;;;;;1.10;0.40;;;;;;;4.62;88.92;97194.09;104174;1308;24153;-29
2021/12/02 05:56:55;;;;;;;0.90;0.50;;;;;;;4.67;88.20;97200.70;104146;1310;24271;-29
2021/12/02 05:59:21;;;;;;;0.40;0.20;;;;;;;4.81;87.17;97199.67;104238;1304;24216;-25
2021/12/02 06:01:49;;;;;;;0.30;0.10;;;;;;;4.55;88.16;97191.48;104212;1310;22590;-29
2021/12/02 06:04:15;;;;;;;0.10;0.00;;;;;;;4.64;87.75;97197.56;104211;1310;22524;-25
2021/12/02 06:06:42;;;;;;;0.20;0.10;;;;;;;4.38;88.96;97202.48;104136;1310;24326;-29
2021/12/02 06:09:08;;;;;;;0.20;0.10;;;;;;;4.21;89.98;97199.35;104203;1310;24167;-28
2021/12/02 06:11:33;;;;;;;0.80;0.40;;;;;;;4.40;88.81;97194.55;104169;1308;24150;-25
2021/12/02 06:13:59;;;;;;;4.50;0.10;;;;;;;4.55;87.62;97205.26;104179;1303;24269;-26
2021/12/02 06:16:25;;;;;;;0.40;0.30;;;;;;;4.55;86.53;97209.10;104243;1304;24144;-28
2021/12/02 06:18:50;;;;;;;0.20;0.20;;;;;;;4.47;86.37;97216.27;104336;1304;22438;-29
2021/12/02 06:21:16;;;;;;;0.30;0.20;;;;;;;4.59;85.20;97219.19;104181;1304;24170;-24
2021/12/02 06:23:43;;;;;;;0.00;0.00;;;;;;;4.36;86.23;97221.07;104194;1304;24222;-24
2021/12/02 06:26:09;;;;;;;0.20;0.10;;;;;;;4.52;86.13;97225.22;104227;1310;24228;-24
2021/12/02 06:28:35;;;;;;;1.00;0.50;;;;;;;4.64;85.21;97228.44;104168;1309;24187;-24
2021/12/02 06:31:02;;;;;;;0.30;0.10;;;;;;;5.01;82.93;97235.36;104089;1310;24265;-29
2021/12/02 06:33:29;;;;;;;0.20;0.10;;;;;;;5.00;81.74;97237.62;104151;1305;24218;-29
2021/12/02 06:35:56;;;;;;;0.60;0.20;;;;;;;5.16;81.25;97238.38;104168;1308;24244;-29
2021/12/02 06:38:22;;;;;;;0.20;0.10;;;;;;;5.20;79.94;97237.66;104114;1308;24233;-29
2021/12/02 06:40:47;;;;;;;0.40;0.30;;;;;;;5.28;78.69;97238.88;104165;1308;24177;-24
2021/12/02 06:43:15;;;;;;;19.40;9.60;;;;;;;5.23;77.14;97238.78;104179;1302;24222;-26
2021/12/02 06:45:41;;;;;;;5.30;1.90;;;;;;;5.11;76.84;97235.83;104200;1307;24272;-27
2021/12/02 06:48:08;;;;;;;3.10;1.30;;;;;;;4.91;76.99;97242.16;104205;1304;24289;-24
2021/12/02 06:50:36;;;;;;;2.00;0.90;;;;;;;4.74;77.79;97249.22;103840;1310;26059;-29
2021/12/02 06:53:02;;;;;;;5.50;1.80;;;;;;;4.65;77.40;97250.86;104196;1304;24279;-24
2021/12/02 06:55:28;;;;;;;6.60;0.70;;;;;;;4.71;76.34;97251.93;104221;1308;25865;-28
2021/12/02 06:57:54;;;;;;;2.20;0.40;;;;;;;4.95;74.41;97257.01;104191;1308;23873;-28
2021/12/02 07:00:20;;;;;;;1.30;0.40;;;;;;;4.82;74.14;97258.88;104200;1304;22688;-29
2021/12/02 07:02:47;;;;;;;7.50;0.70;;;;;;;5.08;72.55;97259.39;104149;1304;24166;-24
2021/12/02 07:05:15;;;;;;;4.40;0.50;;;;;;;4.93;71.99;97269.91;104238;1309;24202;-29
2021/12/02 07:07:41;;;;;;;0.30;0.10;;;;;;;4.70;72.80;97270.71;104157;1304;24168;-24
2021/12/02 07:10:10;;;;;;;1.10;0.20;;;;;;;4.51;73.98;97279.66;104168;1310;24141;-24
2021/12/02 07:12:39;;;;;;;0.50;0.30;;;;;;;4.52;73.09;97286.61;104186;1310;24285;-29
2021/12/02 07:15:07;;;;;;;0.90;0.20;;;;;;;4.51;72.14;97292.59;104197;1310;24167;-28
2021/12/02 07:17:34;;;;;;;0.80;0.30;;;;;;;4.58;71.26;97298.95;104219;1308;22640;-24
2021/12/02 07:20:00;;;;;;;0.80;0.30;;;;;;;4.56;70.65;97301.11;104120;1309;24262;-29
2021/12/02 07:22:26;;;;;;;2.90;0.50;;;;;;;4.26;72.50;97308.57;104174;1305;24227;-28
2021/12/02 07:24:53;;;;;;;0.50;0.20;;;;;;;4.31;71.90;97312.03;104235;1304;24386;-24
2021/12/02 07:27:18;;;;;;;1.20;0.30;;;;;;;4.15;72.20;97313.77;104248;1304;24167;-25
2021/12/02 07:29:45;;;;;;;0.60;0.40;;;;;;;4.06;72.24;97318.07;104137;1308;24152;-28
2021/12/02 07:32:11;;;;;;;0.70;0.20;;;;;;;4.01;71.81;97324.13;104298;1310;24243;-28
2021/12/02 07:34:37;;;;;;;0.60;0.30;;;;;;;4.08;71.83;97323.27;104194;1304;24225;-29
2021/12/02 07:37:03;;;;;;;5.00;0.50;;;;;;;4.09;72.16;97323.95;104170;1309;24266;-28
2021/12/02 07:39:29;;;;;;;0.70;0.40;;;;;;;3.93;73.00;97323.80;104105;1303;24136;-24
2021/12/02 07:41:55;;;;;;;2.20;0.60;;;;;;;4.02;72.90;97321.23;104171;1310;24326;-25
2021/12/02 07:44:22;;;;;;;0.50;0.10;;;;;;;4.03;72.96;97326.58;104186;1301;24283;-29
2021/12/02 07:46:48;;;;;;;0.20;0.00;;;;;;;4.01;72.47;97330.67;104124;1304;24298;-29
2021/12/02 07:49:14;;;;;;;2.40;0.20;;;;;;;4.02;72.28;97332.35;104210;1304;24171;-29
2021/12/02 07:51:43;;;;;;;0.40;0.10;;;;;;;4.00;72.86;97343.21;104132;1310;24192;-24
2021/12/02 07:54:08;;;;;;;1.20;0.10;;;;;;;3.84;73.11;97355.19;104172;1305;24255;-23
2021/12/02 07:56:34;;;;;;;3.20;0.20;;;;;;;3.92;72.61;97359.31;104114;1309;24331;-23
2021/12/02 07:59:00;;;;;;;2.30;0.40;;;;;;;3.94;72.74;97365.08;104150;1310;24376;-24
2021/12/02 08:01:26;;;;;;;2.00;0.30;;;;;;;3.76;73.63;97369.92;104169;1310;24328;-29
2021/12/02 08:03:52;;;;;;;0.10;0.10;;;;;;;3.99;72.31;97376.11;104156;1304;24098;-26
2021/12/02 08:06:18;;;;;;;1.00;0.50;;;;;;;3.99;72.24;97372.88;104183;1305;24284;-27
2021/12/02 08:08:45;;;;;;;2.70;1.00;;;;;;;4.14;72.03;97374.02;104101;1310;24152;-24
2021/12/02 08:11:11;;;;;;;4.00;1.00;;;;;;;4.09;72.02;97373.70;104190;1309;22461;-29
2021/12/02 08:13:37;;;;;;;0.60;0.50;;;;;;;4.02;71.94;97379.05;104169;1310;24224;-24
2021/12/02 08:16:05;;;;;;;3.30;0.70;;;;;;;3.91;72.37;97382.81;104203;1310;24194;-24
2021/12/02 08:18:31;;;;;;;1.20;0.40;;;;;;;3.82;73.08;97383.48;104177;1310;24297;-28
2021/12/02 08:20:58;;;;;;;2.00;0.80;;;;;;;3.85;72.96;97386.55;103849;1307;24105;-28
2021/12/02 08:23:25;;;;;;;1.70;0.80;;;;;;;3.85;73.34;97394.28;104148;1310;24275;-29
2021/12/02 08:25:51;;;;;;;2.20;1.20;;;;;;;3.98;72.70;97395.68;104194;1308;22508;-24
2021/12/02 08:28:16;;;;;;;0.90;0.50;;;;;;;3.93;72.81;97394.85;104319;1310;24299;-25
2021/12/02 08:30:42;;;;;;;1.50;0.60;;;;;;;3.84;73.18;97393.92;104167;1302;24437;-25
2021/12/02 08:33:09;;;;;;;1.30;0.40;;;;;;;3.93;72.61;97399.48;104144;1309;24158;-24
2021/12/02 08:35:35;;;;;;;2.30;1.00;;;;;;;3.95;73.10;97405.56;104166;1308;24299;-24
2021/12/02 08:38:08;;;;;;;18.20;1.20;;;;;;;4.04;72.35;97407.33;104188;1305;22483;-24
2021/12/02 08:40:36;;;;;;;3.50;0.70;;;;;;;4.14;71.45;97406.59;104115;1310;24185;-29
2021/12/02 08:43:04;;;;;;;1.80;0.80;;;;;;;4.26;71.26;97408.48;104136;1310;24276;-24
2021/12/02 08:45:30;;;;;;;2.10;0.60;;;;;;;4.12;72.29;97409.95;104200;1307;24218;-29
2021/12/02 08:47:57;;;;;;;3.60;1.40;;;;;;;4.28;71.48;97412.16;104194;1310;23681;-28
2021/12/02 08:50:23;;;;;;;3.70;0.60;;;;;;;4.48;71.01;97416.39;104188;1310;24214;-28
2021/12/02 08:52:50;;;;;;;7.10;3.40;;;;;;;4.88;68.55;97415.36;104198;1301;24295;-24
2021/12/02 08:55:16;;;;;;;3.00;1.90;;;;;;;4.93;68.03;97419.32;104200;1310;22457;-24
2021/12/02 08:57:42;;;;;;;12.10;5.40;;;;;;;5.06;67.29;97420.38;104205;1310;24185;-24
2021/12/02 09:00:10;;;;;;;6.90;3.70;;;;;;;4.91;67.04;97429.11;104186;1308;24153;-26
2021/12/02 09:02:36;;;;;;;2.80;1.20;;;;;;;5.29;65.08;97424.13;104224;1310;24314;-26
2021/12/02 09:05:02;;;;;;;5.60;4.30;;;;;;;5.10;65.77;97430.66;104104;1310;24170;-24
2021/12/02 09:07:28;;;;;;;1.80;0.50;;;;;;;5.06;65.67;97424.40;104237;1310;24177;-29
2021/12/02 09:09:53;;;;;;;2.80;0.90;;;;;;;4.76;66.99;97423.34;104067;1310;24362;-29
2021/12/02 09:12:19;;;;;;;1.80;0.70;;;;;;;4.59;67.34;97429.54;104146;1308;24263;-29
2021/12/02 09:14:45;;;;;;;2.10;0.50;;;;;;;4.58;66.79;97430.45;104112;1310;24149;-24
2021/12/02 09:17:11;;;;;;;5.20;1.40;;;;;;;4.61;67.25;97434.24;104205;1303;24007;-29
2021/12/02 09:19:36;;;;;;;5.10;1.60;;;;;;;4.92;66.03;97435.53;103907;1312;24282;-25
2021/12/02 09:22:02;;;;;;;1.20;0.60;;;;;;;5.02;65.04;97434.88;104074;1310;24329;-25
2021/12/02 09:24:28;;;;;;;2.10;0.90;;;;;;;4.80;66.13;97429.95;104205;1309;24175;-24
2021/12/02 09:26:54;;;;;;;3.20;2.00;;;;;;;4.76;66.62;97430.55;104156;1310;24131;-29
2021/12/02 09:29:20;;;;;;;4.60;1.40;;;;;;;4.88;66.65;97427.48;103856;1311;24286;-25
2021/12/02 09:31:46;;;;;;;3.90;2.90;;;;;;;4.73;66.60;97434.05;104234;1308;24219;-23
2021/12/02 09:34:13;;;;;;;3.50;1.00;;;;;;;4.92;65.39;97432.66;104193;1306;22449;-29
2021/12/02 09:36:41;;;;;;;1.40;0.50;;;;;;;4.91;65.31;97432.51;104248;1308;22498;-24
2021/12/02 09:39:08;;;;;;;0.60;0.30;;;;;;;4.62;67.01;97438.37;104215;1310;24250;-24
2021/12/02 09:41:34;;;;;;;1.90;0.60;;;;;;;4.67;67.16;97439.35;104226;1310;24356;-25
2021/12/02 09:44:00;;;;;;;1.00;0.60;;;;;;;4.82;67.21;97438.09;104179;1303;22541;-29
2021/12/02 09:46:26;;;;;;;3.40;0.50;;;;;;;5.03;66.53;97432.52;104208;1310;24163;-24
2021/12/02 09:49:00;;;;;;;2.70;1.10;;;;;;;5.18;66.43;97428.09;104211;1310;24177;-24
2021/12/02 09:51:32;;;;;;;2.30;0.70;;;;;;;5.45;65.17;97426.31;104143;1310;24289;-25
2021/12/02 09:54:07;;;;;;;5.70;1.20;;;;;;;5.39;65.97;97429.89;104167;1310;24170;-29
2021/12/02 09:56:44;;;;;;;;;;;;;;;;;;;;;
2021/12/02 09:59:22;;;;;;;0.40;0.20;;;;;;;5.42;67.44;97422.30;104126;1304;22671;-29
2021/12/02 10:01:51;;;;;;;1.00;0.60;;;;;;;5.69;66.41;97422.27;104159;1310;24294;-25
2021/12/02 10:04:20;;;;;;;1.30;0.30;;;;;;;5.95;66.50;97425.27;104203;1304;24147;-29
2021/12/02 10:06:48;;;;;;;3.90;1.10;;;;;;;6.07;66.37;97429.11;104169;1310;22577;-29
2021/12/02 10:09:22;;;;;;;3.00;1.50;;;;;;;6.29;66.04;97431.44;103978;1303;24302;-25
2021/12/02 10:14:20;;;;;;;3.80;0.90;;;;;;;6.39;65.54;97421.64;104218;1309;24156;-25
2021/12/02 10:16:47;;;;;;;2.30;0.70;;;;;;;6.39;66.03;97424.83;104202;1300;22755;-25
2021/12/02 10:19:19;;;;;;;6.30;1.10;;;;;;;6.77;65.72;97428.23;104140;1310;24335;-24
2021/12/02 10:21:51;;;;;;;2.80;0.70;;;;;;;7.22;61.60;97423.34;104194;1308;24252;-24
2021/12/02 10:24:20;;;;;;;2.10;1.10;;;;;;;7.30;60.94;97426.41;104181;1304;22470;-24
2021/12/02 10:26:49;;;;;;;1.60;0.90;;;;;;;7.82;58.48;97419.80;103794;1304;506026;-24
2021/12/02 10:29:17;;;;;;;1.90;0.70;;;;;;;8.11;57.95;97425.42;104201;1307;23894;-29
2021/12/02 10:31:47;;;;;;;2.30;0.90;;;;;;;7.61;59.82;97425.83;104200;1304;24115;-32
2021/12/02 10:34:15;;;;;;;1.20;0.40;;;;;;;7.55;60.88;97425.52;104179;1310;24199;-25
2021/12/02 10:36:43;;;;;;;2.00;0.60;;;;;;;7.43;60.51;97431.77;104233;1305;24172;-25
2021/12/02 10:39:11;;;;;;;1.20;0.50;;;;;;;7.30;60.49;97426.05;104126;1308;25269;-30
2021/12/02 10:41:41;;;;;;;1.90;0.70;;;;;;;7.30;60.84;97433.63;104165;1309;24167;-29
2021/12/02 10:44:10;;;;;;;2.20;0.90;;;;;;;7.53;59.78;97428.37;104171;1310;24193;-31
2021/12/02 10:46:38;;;;;;;0.90;0.40;;;;;;;8.13;55.51;97422.63;104203;1308;24164;-27
2021/12/02 10:49:05;;;;;;;1.30;0.80;;;;;;;7.59;56.81;97423.64;104178;1309;24179;-31
2021/12/02 10:51:36;;;;;;;1.90;0.90;;;;;;;7.15;58.11;97432.08;104129;1309;24162;-31
2021/12/02 10:54:03;;;;;;;1.70;0.70;;;;;;;6.58;60.44;97432.60;104240;1304;24156;-30
2021/12/02 10:56:31;;;;;;;1.30;0.20;;;;;;;6.62;59.61;97435.09;104248;1310;24180;-30
2021/12/02 10:58:57;;;;;;;0.50;0.30;;;;;;;6.70;58.77;97435.38;104137;1309;24137;-29
2021/12/02 11:01:29;;;;;;;3.00;1.10;;;;;;;6.70;58.91;97432.66;104144;1308;22477;-29
2021/12/02 11:04:02;;;;;;;1.10;0.50;;;;;;;6.94;57.64;97431.95;104111;1303;24027;-25
2021/12/02 11:06:37;;;;;;;1.10;0.60;;;;;;;6.90;58.56;97451.30;103897;1310;24283;-29
2021/12/02 11:09:04;;;;;;;3.00;0.60;;;;;;;6.50;59.52;97448.01;104179;1308;25317;-25
2021/12/02 11:11:29;;;;;;;2.10;0.50;;;;;;;6.66;58.74;97449.99;104141;1304;24187;-29
2021/12/02 11:13:55;;;;;;;1.80;0.60;;;;;;;6.93;57.92;97445.37;104185;1305;22450;-30
2021/12/02 11:16:28;;;;;;;0.80;0.20;;;;;;;7.03;57.14;97457.39;104750;1304;24153;-29
2021/12/02 11:18:54;;;;;;;1.30;0.30;;;;;;;6.59;59.10;97461.39;104161;1304;23923;-29
2021/12/02 11:21:20;;;;;;;0.70;0.40;;;;;;;6.50;59.60;97454.82;104132;1308;24153;-25
2021/12/02 11:23:47;;;;;;;3.20;0.80;;;;;;;6.63;59.20;97461.02;104218;1309;24167;-29
2021/12/02 11:26:17;;;;;;;1.60;0.70;;;;;;;6.76;58.99;97461.77;104128;1308;24221;-29
2021/12/02 11:28:43;;;;;;;0.50;0.20;;;;;;;6.74;59.24;97458.30;104182;1308;24269;-26
2021/12/02 11:31:13;;;;;;;1.90;0.50;;;;;;;7.15;58.16;97456.27;104155;1304;24144;-25
2021/12/02 11:33:39;;;;;;;1.60;0.40;;;;;;;7.03;59.16;97455.11;104135;1308;23712;-29
2021/12/02 11:36:07;;;;;;;2.90;0.90;;;;;;;7.08;58.53;97456.77;104169;1304;24375;-25
2021/12/02 11:38:34;;;;;;;2.60;0.60;;;;;;;6.86;58.42;97456.79;104156;1304;22478;-25
2021/12/02 11:41:02;;;;;;;0.50;0.40;;;;;;;6.68;58.87;97461.41;104117;1304;24143;-25
2021/12/02 11:43:31;;;;;;;0.80;0.50;;;;;;;6.90;58.18;97466.39;104192;1308;25266;-29
2021/12/02 11:45:57;;;;;;;0.90;0.50;;;;;;;6.74;58.48;97468.80;104160;1304;24305;-29
2021/12/02 11:48:26;;;;;;;1.80;0.80;;;;;;;6.84;58.59;97474.00;104233;1302;24166;-29
2021/12/02 11:50:54;;;;;;;2.30;1.20;;;;;;;6.52;59.78;97477.66;104156;1304;22692;-27